createdAt,value
2016-06-02T00:00:05.563Z,23.25
2016-06-02T00:01:05.738Z,23.25
2016-06-02T00:02:05.741Z,23.32
2016-06-02T00:03:05.744Z,23.32
2016-06-02T00:04:05.746Z,23.33
2016-06-02T00:05:05.765Z,23.27
2016-06-02T00:06:05.767Z,23.33
2016-06-02T00:07:05.614Z,23.35
2016-06-02T00:08:05.788Z,23.43
2016-06-02T00:09:05.791Z,23.48
2016-06-02T00:10:06.044Z,23.57
2016-06-02T00:11:05.640Z,23.55
2016-06-02T00:12:05.798Z,23.57
2016-06-02T00:13:05.646Z,23.55
2016-06-02T00:14:05.820Z,23.6
2016-06-02T00:15:05.823Z,23.58
2016-06-02T00:16:05.841Z,23.63
2016-06-02T00:17:05.828Z,23.63
2016-06-02T00:18:05.847Z,23.55
2016-06-02T00:19:05.850Z,23.58
2016-06-02T00:20:05.852Z,23.58
2016-06-02T00:21:05.855Z,23.65
2016-06-02T00:22:05.873Z,23.55
2016-06-02T00:23:05.719Z,23.6
2016-06-02T00:24:05.722Z,23.57
2016-06-02T00:25:05.959Z,23.58
2016-06-02T00:26:05.883Z,23.53
2016-06-02T00:27:05.730Z,23.55
2016-06-02T00:28:05.905Z,23.55
2016-06-02T00:29:05.907Z,23.48
2016-06-02T00:30:05.911Z,23.55
2016-06-02T00:31:05.929Z,23.51
2016-06-02T00:32:05.774Z,23.46
2016-06-02T00:33:05.934Z,23.5
2016-06-02T00:34:05.937Z,23.51
2016-06-02T00:35:05.940Z,23.53
2016-06-02T00:36:05.942Z,23.5
2016-06-02T00:37:05.945Z,23.48
2016-06-02T00:38:05.807Z,23.47
2016-06-02T00:39:05.982Z,23.48
2016-06-02T00:40:05.828Z,23.53
2016-06-02T00:41:05.971Z,23.46
2016-06-02T00:42:05.973Z,23.42
2016-06-02T00:43:05.992Z,23.47
2016-06-02T00:44:05.995Z,23.46
2016-06-02T00:45:05.998Z,23.5
2016-06-02T00:46:05.859Z,23.51
2016-06-02T00:47:06.018Z,23.5
2016-06-02T00:48:06.037Z,23.5
2016-06-02T00:49:06.023Z,23.46
2016-06-02T00:50:05.886Z,23.48
2016-06-02T00:51:06.045Z,23.51
2016-06-02T00:52:06.048Z,23.46
2016-06-02T00:53:06.050Z,23.5
2016-06-02T00:54:06.069Z,23.42
2016-06-02T00:55:07.009Z,23.51
2016-06-02T00:56:06.074Z,23.43
2016-06-02T00:57:06.077Z,23.43
2016-06-02T00:58:06.079Z,23.48
2016-06-02T00:59:06.082Z,23.48
2016-06-02T01:00:06.100Z,23.46
2016-06-02T01:01:06.103Z,23.39
2016-06-02T01:02:06.105Z,23.46
2016-06-02T01:03:06.108Z,23.4
2016-06-02T01:04:06.127Z,23.42
2016-06-02T01:05:06.129Z,23.39
2016-06-02T01:06:06.132Z,23.39
2016-06-02T01:07:05.979Z,23.47
2016-06-02T01:08:06.199Z,23.43
2016-06-02T01:29:54.947Z,23.47
2016-06-02T01:30:54.950Z,23.4
2016-06-02T01:31:54.952Z,23.43
2016-06-02T01:32:54.814Z,23.42
2016-06-02T01:33:54.974Z,23.38
2016-06-02T01:34:54.976Z,23.39
2016-06-02T01:35:54.994Z,23.42
2016-06-02T01:36:54.982Z,23.39
2016-06-02T01:37:54.999Z,23.42
2016-06-02T01:38:55.002Z,23.39
2016-06-02T01:39:55.224Z,23.38
2016-06-02T01:40:55.024Z,23.42
2016-06-02T01:41:55.026Z,23.39
2016-06-02T01:42:55.029Z,23.39
2016-06-02T01:43:55.032Z,23.38
2016-06-02T01:44:55.034Z,23.39
2016-06-02T01:45:55.052Z,23.39
2016-06-02T01:46:55.054Z,23.39
2016-06-02T01:47:55.057Z,23.39
2016-06-02T01:48:54.904Z,23.36
2016-06-02T01:49:54.906Z,23.4
2016-06-02T01:50:55.081Z,23.36
2016-06-02T01:51:55.084Z,23.36
2016-06-02T01:52:55.087Z,23.39
2016-06-02T01:53:55.089Z,23.33
2016-06-02T01:54:54.842Z,23.36
2016-06-02T01:55:55.141Z,23.36
2016-06-02T01:56:55.114Z,23.36
2016-06-02T01:57:54.958Z,23.39
2016-06-02T01:58:55.119Z,23.38
2016-06-02T01:59:55.136Z,23.38
2016-06-02T02:00:54.983Z,23.39
2016-06-02T02:01:55.141Z,23.38
2016-06-02T02:03:09.254Z,23.43
2016-06-02T02:03:55.147Z,23.33
2016-06-02T02:04:55.010Z,23.36
2016-06-02T02:05:55.168Z,23.33
2016-06-02T02:06:55.171Z,23.39
2016-06-02T02:07:55.189Z,23.36
2016-06-02T02:08:55.193Z,23.36
2016-06-02T02:09:55.946Z,23.33
2016-06-02T02:10:55.073Z,23.38
2016-06-02T02:11:55.201Z,23.36
2016-06-02T02:12:55.204Z,23.38
2016-06-02T02:13:55.206Z,23.42
2016-06-02T02:14:55.223Z,23.39
2016-06-02T02:15:55.226Z,23.42
2016-06-02T02:16:55.245Z,23.39
2016-06-02T02:17:55.092Z,23.43
2016-06-02T02:18:55.234Z,23.39
2016-06-02T02:19:55.253Z,23.46
2016-06-02T02:20:55.255Z,23.42
2016-06-02T02:21:55.259Z,23.43
2016-06-02T02:22:55.276Z,23.42
2016-06-02T02:23:55.279Z,23.39
2016-06-02T02:24:56.031Z,23.42
2016-06-02T02:25:55.426Z,23.39
2016-06-02T02:26:55.286Z,23.4
2016-06-02T02:27:55.305Z,23.39
2016-06-02T02:28:55.309Z,23.43
2016-06-02T02:29:55.311Z,23.43
2016-06-02T02:30:55.188Z,23.42
2016-06-02T02:31:55.175Z,23.42
2016-06-02T02:32:55.335Z,23.39
2016-06-02T02:33:55.181Z,23.36
2016-06-02T02:34:55.340Z,23.42
2016-06-02T02:35:55.046Z,23.38
2016-06-02T02:36:55.346Z,23.43
2016-06-02T02:37:55.364Z,23.4
2016-06-02T02:38:55.366Z,23.43
2016-06-02T02:39:55.415Z,23.4
2016-06-02T02:40:55.247Z,23.4
2016-06-02T02:41:55.390Z,23.46
2016-06-02T02:42:55.237Z,23.39
2016-06-02T02:43:55.395Z,23.46
2016-06-02T02:44:55.445Z,23.42
2016-06-02T02:45:55.417Z,23.39
2016-06-02T02:46:55.419Z,23.46
2016-06-02T02:47:55.423Z,23.43
2016-06-02T02:48:55.112Z,23.38
2016-06-02T02:49:55.427Z,23.5
2016-06-02T02:50:55.446Z,23.36
2016-06-02T02:51:55.464Z,23.4
2016-06-02T02:52:55.482Z,23.46
2016-06-02T02:53:55.469Z,23.43
2016-06-02T02:54:55.644Z,23.38
2016-06-02T02:55:55.506Z,23.36
2016-06-02T02:56:55.478Z,23.39
2016-06-02T02:57:55.324Z,23.4
2016-06-02T02:58:55.342Z,23.38
2016-06-02T02:59:55.486Z,23.42
2016-06-02T03:00:55.503Z,23.39
2016-06-02T03:01:55.506Z,23.48
2016-06-02T03:02:55.509Z,23.43
2016-06-02T03:03:55.528Z,23.39
2016-06-02T03:04:55.577Z,23.46
2016-06-02T03:05:55.376Z,23.39
2016-06-02T03:06:55.535Z,23.43
2016-06-02T03:07:55.538Z,23.42
2016-06-02T03:08:55.400Z,23.42
2016-06-02T03:09:55.888Z,23.48
2016-06-02T03:10:55.515Z,23.39
2016-06-02T03:11:55.580Z,23.4
2016-06-02T03:12:55.583Z,23.39
2016-06-02T03:13:55.586Z,23.38
2016-06-02T03:14:55.604Z,23.5
2016-06-02T03:15:55.607Z,23.42
2016-06-02T03:16:55.609Z,23.39
2016-06-02T03:17:55.659Z,23.39
2016-06-02T03:18:55.614Z,23.4
2016-06-02T03:19:55.617Z,23.42
2016-06-02T03:20:55.636Z,23.39
2016-06-02T03:21:55.639Z,23.42
2016-06-02T03:22:55.641Z,23.46
2016-06-02T03:23:55.659Z,23.36
2016-06-02T03:24:55.662Z,23.39
2016-06-02T03:25:55.508Z,23.39
2016-06-02T03:26:55.667Z,23.36
2016-06-02T03:27:55.670Z,23.39
2016-06-02T03:28:55.713Z,23.42
2016-06-02T03:29:55.725Z,23.4
2016-06-02T03:30:55.769Z,23.38
2016-06-02T03:31:55.797Z,23.36
2016-06-02T03:32:55.669Z,23.38
2016-06-02T03:33:55.852Z,23.36
2016-06-02T03:34:55.865Z,23.33
2016-06-02T03:35:55.877Z,23.32
2016-06-02T03:36:55.732Z,23.36
2016-06-02T03:37:55.744Z,23.39
2016-06-02T03:38:55.923Z,23.38
2016-06-02T03:39:56.225Z,23.38
2016-06-02T03:40:57.778Z,23.36
2016-06-02T03:41:55.940Z,23.35
2016-06-02T03:42:55.789Z,23.38
2016-06-02T03:43:55.808Z,23.33
2016-06-02T03:44:55.969Z,23.4
2016-06-02T03:45:55.832Z,23.28
2016-06-02T03:46:55.976Z,23.32
2016-06-02T03:47:55.824Z,23.31
2016-06-02T03:48:55.999Z,23.32
2016-06-02T03:49:56.002Z,23.39
2016-06-02T03:50:56.021Z,23.36
2016-06-02T03:51:56.024Z,23.38
2016-06-02T03:52:56.027Z,23.33
2016-06-02T03:53:56.030Z,23.33
2016-06-02T03:54:55.892Z,23.31
2016-06-02T03:55:56.255Z,23.35
2016-06-02T03:56:56.056Z,23.25
2016-06-02T03:57:56.059Z,23.36
2016-06-02T03:58:56.061Z,23.31
2016-06-02T03:59:56.064Z,23.31
2016-06-02T04:00:55.941Z,23.28
2016-06-02T04:01:56.085Z,23.33
2016-06-02T04:02:56.087Z,23.33
2016-06-02T04:03:55.950Z,23.33
2016-06-02T04:04:56.092Z,23.31
2016-06-02T04:05:55.955Z,23.31
2016-06-02T04:06:56.114Z,23.35
2016-06-02T04:07:56.117Z,23.32
2016-06-02T04:08:56.134Z,23.39
2016-06-02T04:09:56.794Z,23.33
2016-06-02T04:10:56.139Z,23.25
2016-06-02T04:11:56.142Z,23.32
2016-06-02T04:12:56.160Z,23.32
2016-06-02T04:13:56.147Z,23.32
2016-06-02T04:14:56.166Z,23.28
2016-06-02T04:15:56.169Z,23.36
2016-06-02T04:16:56.171Z,23.31
2016-06-02T04:17:56.174Z,23.33
2016-06-02T04:18:56.193Z,23.38
2016-06-02T04:19:56.085Z,23.35
2016-06-02T04:20:56.182Z,23.27
2016-06-02T04:21:56.201Z,23.32
2016-06-02T04:22:56.204Z,23.36
2016-06-02T04:23:56.065Z,23.33
2016-06-02T04:24:56.302Z,23.31
2016-06-02T04:25:56.227Z,23.35
2016-06-02T04:26:56.089Z,23.39
2016-06-02T04:27:56.232Z,23.35
2016-06-02T04:28:56.251Z,23.33
2016-06-02T04:29:56.254Z,23.36
2016-06-02T04:30:56.257Z,23.39
2016-06-02T04:31:56.275Z,23.36
2016-06-02T04:32:56.277Z,23.36
2016-06-02T04:33:56.295Z,23.42
2016-06-02T04:34:56.283Z,23.39
2016-06-02T04:35:56.300Z,23.4
2016-06-02T04:36:56.131Z,23.46
2016-06-02T04:37:56.150Z,23.39
2016-06-02T04:38:56.309Z,23.4
2016-06-02T04:39:56.702Z,23.43
2016-06-02T04:40:56.283Z,23.39
2016-06-02T04:41:56.333Z,23.42
2016-06-02T04:42:56.336Z,23.39
2016-06-02T04:43:56.338Z,23.38
2016-06-02T04:44:56.341Z,23.42
2016-06-02T04:45:56.358Z,23.46
2016-06-02T04:46:56.362Z,23.51
2016-06-02T04:47:56.208Z,23.48
2016-06-02T04:48:56.367Z,23.58
2016-06-02T04:49:56.385Z,23.54
2016-06-02T04:50:56.388Z,23.58
2016-06-02T04:51:56.390Z,23.55
2016-06-02T04:52:56.393Z,23.53
2016-06-02T04:53:56.412Z,23.55
2016-06-02T04:54:56.430Z,23.58
2016-06-02T04:55:57.089Z,23.58
2016-06-02T04:56:56.420Z,23.51
2016-06-02T04:57:56.282Z,23.55
2016-06-02T04:58:56.440Z,23.54
2016-06-02T04:59:56.443Z,23.61
2016-06-02T05:00:56.478Z,23.58
2016-06-02T05:01:56.449Z,23.55
2016-06-02T05:02:56.452Z,23.55
2016-06-02T05:03:56.470Z,23.53
2016-06-02T05:04:56.473Z,23.6
2016-06-02T05:05:56.537Z,23.55
2016-06-02T05:06:56.494Z,23.55
2016-06-02T05:07:56.496Z,23.63
2016-06-02T05:08:56.499Z,23.58
2016-06-02T05:09:57.111Z,23.68
2016-06-02T05:10:56.973Z,23.76
2016-06-02T05:11:56.522Z,23.78
2016-06-02T05:12:56.541Z,23.8
2016-06-02T05:13:56.559Z,23.87
2016-06-02T05:14:56.547Z,23.84
2016-06-02T05:15:56.580Z,23.88
2016-06-02T05:16:56.567Z,23.78
2016-06-02T05:17:56.569Z,23.84
2016-06-02T05:18:56.589Z,23.87
2016-06-02T05:19:56.575Z,23.88
2016-06-02T05:20:56.593Z,23.76
2016-06-02T05:21:56.441Z,23.88
2016-06-02T05:22:56.599Z,23.87
2016-06-02T05:23:56.618Z,23.79
2016-06-02T05:25:01.307Z,23.84
2016-06-02T05:25:56.482Z,23.78
2016-06-02T05:26:56.626Z,23.85
2016-06-02T05:27:56.644Z,23.83
2016-06-02T05:28:56.646Z,23.91
2016-06-02T05:29:56.649Z,23.85
2016-06-02T05:30:56.715Z,23.93
2016-06-02T05:31:56.670Z,23.88
2016-06-02T05:32:56.689Z,23.9
2016-06-02T05:33:56.692Z,23.85
2016-06-02T05:34:56.695Z,23.8
2016-06-02T05:35:56.697Z,23.84
2016-06-02T05:36:56.700Z,23.78
2016-06-02T05:37:56.703Z,23.87
2016-06-02T05:38:56.705Z,23.85
2016-06-02T05:39:56.583Z,23.8
2016-06-02T05:40:57.554Z,23.87
2016-06-02T05:41:56.744Z,23.88
2016-06-02T05:42:56.747Z,23.78
2016-06-02T05:43:56.764Z,23.79
2016-06-02T05:44:56.767Z,23.93
2016-06-02T05:45:56.613Z,24.08
2016-06-02T05:46:56.773Z,24.08
2016-06-02T05:47:56.791Z,24.08
2016-06-02T05:48:56.638Z,24.03
2016-06-02T05:49:56.797Z,24.06
2016-06-02T05:50:56.799Z,24.09
2016-06-02T05:51:56.818Z,24.1
2016-06-02T05:52:56.835Z,24.13
2016-06-02T05:53:56.824Z,24.16
2016-06-02T05:54:56.841Z,24.3
2016-06-02T05:55:56.844Z,24.18
2016-06-02T05:56:56.846Z,24.21
2016-06-02T05:57:56.709Z,24.25
2016-06-02T05:58:56.868Z,24.34
2016-06-02T05:59:56.730Z,24.4
2016-06-02T06:00:56.889Z,24.49
2016-06-02T06:01:56.907Z,24.52
2016-06-02T06:02:56.754Z,24.53
2016-06-02T06:03:56.912Z,24.64
2016-06-02T06:04:56.775Z,24.64
2016-06-02T06:05:56.777Z,24.73
2016-06-02T06:06:56.781Z,24.87
2016-06-02T06:07:56.954Z,24.93
2016-06-02T06:08:57.020Z,24.88
2016-06-02T06:09:57.617Z,24.95
2016-06-02T06:10:57.603Z,25.05
2016-06-02T06:11:56.981Z,24.96
2016-06-02T06:12:56.843Z,25
2016-06-02T06:13:56.861Z,25
2016-06-02T06:14:57.020Z,25.02
2016-06-02T06:15:57.023Z,25.08
2016-06-02T06:16:57.025Z,25.09
2016-06-02T06:17:57.044Z,25.09
2016-06-02T06:18:57.047Z,25.18
2016-06-02T06:19:57.066Z,25.18
2016-06-02T06:20:56.912Z,25.23
2016-06-02T06:21:57.085Z,25.24
2016-06-02T06:22:56.933Z,25.24
2016-06-02T06:23:57.108Z,25.21
2016-06-02T06:24:57.641Z,25.23
2016-06-02T06:25:56.972Z,25.13
2016-06-02T06:26:57.131Z,25.28
2016-06-02T06:27:57.133Z,25.24
2016-06-02T06:28:57.152Z,25.13
2016-06-02T06:29:56.999Z,25.14
2016-06-02T06:30:57.173Z,25.05
2016-06-02T06:31:57.176Z,25.15
2016-06-02T06:32:57.194Z,25.08
2016-06-02T06:33:57.196Z,25.14
2016-06-02T06:34:57.215Z,25.08
2016-06-02T06:35:57.218Z,25.02
2016-06-02T06:36:57.221Z,25.09
2016-06-02T06:37:57.239Z,25.1
2016-06-02T06:38:57.242Z,25.15
2016-06-02T06:39:57.556Z,25.17
2016-06-02T06:40:58.325Z,25.15
2016-06-02T06:41:57.281Z,25.06
2016-06-02T06:42:57.283Z,25.18
2016-06-02T06:43:57.286Z,25.1
2016-06-02T06:44:57.303Z,25.09
2016-06-02T06:45:57.307Z,25.05
2016-06-02T06:46:57.341Z,24.99
2016-06-02T06:47:57.328Z,24.9
2016-06-02T06:48:57.330Z,24.85
2016-06-02T06:49:57.349Z,24.84
2016-06-02T06:50:57.352Z,24.91
2016-06-02T06:51:57.354Z,24.85
2016-06-02T06:52:57.372Z,24.76
2016-06-02T06:53:57.375Z,24.73
2016-06-02T06:54:57.722Z,24.67
2016-06-02T06:55:57.287Z,24.68
2016-06-02T06:56:57.415Z,24.62
2016-06-02T06:57:57.260Z,24.61
2016-06-02T06:58:57.420Z,24.67
2016-06-02T06:59:57.423Z,24.67
2016-06-02T07:00:57.441Z,24.83
2016-06-02T07:01:57.443Z,24.69
2016-06-02T07:02:57.446Z,24.81
2016-06-02T07:03:57.465Z,24.85
2016-06-02T07:04:57.467Z,25.06
2016-06-02T07:05:57.485Z,25.15
2016-06-02T07:06:57.503Z,25.27
2016-06-02T07:07:57.490Z,25.27
2016-06-02T07:08:57.509Z,25.4
2016-06-02T07:09:57.512Z,25.4
2016-06-02T07:10:58.139Z,25.4
2016-06-02T07:11:57.534Z,25.45
2016-06-02T07:12:57.551Z,25.43
2016-06-02T07:13:57.553Z,25.43
2016-06-02T07:14:57.417Z,25.5
2016-06-02T07:15:57.575Z,25.46
2016-06-02T07:16:57.578Z,25.24
2016-06-02T07:17:57.440Z,25.17
2016-06-02T07:18:57.615Z,25.02
2016-06-02T07:19:57.601Z,24.93
2016-06-02T07:20:57.620Z,24.95
2016-06-02T07:21:57.623Z,24.87
2016-06-02T07:22:57.641Z,24.87
2016-06-02T07:23:57.488Z,24.76
2016-06-02T07:24:57.959Z,24.69
2016-06-02T07:25:57.524Z,24.8
2016-06-02T07:26:57.527Z,24.71
2016-06-02T07:27:57.686Z,24.71
2016-06-02T07:28:57.735Z,24.68
2016-06-02T07:29:57.722Z,24.55
2016-06-02T07:30:57.725Z,24.67
2016-06-02T07:31:57.555Z,24.58
2016-06-02T07:32:57.715Z,24.61
2016-06-02T07:33:57.733Z,24.67
2016-06-02T07:34:57.736Z,24.67
2016-06-02T07:35:57.754Z,24.6
2016-06-02T07:36:57.757Z,24.64
2016-06-02T07:37:57.759Z,24.62
2016-06-02T07:38:57.621Z,24.71
2016-06-02T07:39:57.906Z,24.71
2016-06-02T07:40:58.424Z,24.96
2016-06-02T07:41:57.801Z,25.05
2016-06-02T07:42:57.648Z,25.21
2016-06-02T07:43:57.837Z,25.2
2016-06-02T07:44:57.825Z,25.06
2016-06-02T07:45:57.672Z,25.09
2016-06-02T07:46:57.846Z,24.96
2016-06-02T07:47:57.693Z,25.05
2016-06-02T07:48:57.695Z,25.09
2016-06-02T07:49:57.854Z,25.17
2016-06-02T07:50:57.872Z,25.17
2016-06-02T07:51:57.719Z,25.17
2016-06-02T07:52:57.894Z,25.08
2016-06-02T07:53:57.912Z,25
2016-06-02T07:54:57.914Z,24.87
2016-06-02T07:55:57.917Z,24.91
2016-06-02T07:56:57.935Z,25.05
2016-06-02T07:57:57.938Z,24.98
2016-06-02T07:58:57.925Z,24.9
2016-06-02T07:59:57.944Z,24.78
2016-06-02T08:00:57.947Z,24.71
2016-06-02T08:01:57.652Z,24.65
2016-06-02T08:02:58.170Z,24.67
2016-06-02T08:03:58.001Z,24.64
2016-06-02T08:04:57.988Z,24.65
2016-06-02T08:05:57.990Z,24.62
2016-06-02T08:06:57.994Z,24.67
2016-06-02T08:07:58.012Z,24.69
2016-06-02T08:08:58.014Z,24.64
2016-06-02T08:09:58.065Z,24.67
2016-06-02T08:10:58.051Z,24.67
2016-06-02T08:11:58.084Z,24.69
2016-06-02T08:12:57.745Z,24.65
2016-06-02T08:13:58.075Z,24.65
2016-06-02T08:14:58.108Z,24.71
2016-06-02T08:15:57.908Z,24.65
2016-06-02T08:16:58.067Z,24.64
2016-06-02T08:17:58.070Z,24.67
2016-06-02T08:18:57.931Z,24.65
2016-06-02T08:19:58.107Z,24.65
2016-06-02T08:20:58.109Z,24.62
2016-06-02T08:21:58.112Z,24.6
2016-06-02T08:22:58.114Z,24.55
2016-06-02T08:23:57.977Z,24.61
2016-06-02T08:24:58.136Z,24.64
2016-06-02T08:25:58.826Z,24.68
2016-06-02T08:26:58.157Z,24.73
2016-06-02T08:27:58.003Z,24.69
2016-06-02T08:28:58.162Z,24.62
2016-06-02T08:29:58.180Z,24.62
2016-06-02T08:30:58.183Z,24.52
2016-06-02T08:31:58.202Z,24.53
2016-06-02T08:32:58.204Z,24.57
2016-06-02T08:33:58.207Z,24.49
2016-06-02T08:34:58.210Z,24.58
2016-06-02T08:35:58.228Z,24.5
2016-06-02T08:36:58.230Z,24.57
2016-06-02T08:37:58.076Z,24.53
2016-06-02T08:38:58.235Z,24.53
2016-06-02T08:39:58.254Z,24.53
2016-06-02T08:40:58.115Z,24.55
2016-06-02T08:41:58.275Z,24.5
2016-06-02T08:42:57.965Z,24.6
2016-06-02T08:43:58.139Z,24.55
2016-06-02T08:44:58.283Z,24.57
2016-06-02T08:45:58.395Z,24.53
2016-06-02T08:46:58.320Z,24.53
2016-06-02T08:47:58.306Z,24.42
2016-06-02T08:48:58.309Z,24.08
2016-06-02T08:49:58.328Z,24.03
2016-06-02T08:50:58.174Z,23.93
2016-06-02T08:51:58.334Z,23.95
2016-06-02T08:52:58.195Z,23.69
2016-06-02T08:53:58.198Z,23.66
2016-06-02T08:54:58.200Z,23.61
2016-06-02T08:55:58.219Z,23.61
2016-06-02T08:56:58.362Z,23.84
2016-06-02T08:57:58.365Z,23.87
2016-06-02T08:58:58.368Z,23.9
2016-06-02T08:59:58.386Z,23.84
2016-06-02T09:00:58.389Z,23.78
2016-06-02T09:01:58.391Z,23.79
2016-06-02T09:02:58.394Z,23.7
2016-06-02T09:03:58.396Z,23.68
2016-06-02T09:04:58.400Z,23.66
2016-06-02T09:05:58.402Z,23.6
2016-06-02T09:06:58.249Z,23.55
2016-06-02T09:07:58.408Z,23.65
2016-06-02T09:08:58.410Z,23.73
2016-06-02T09:09:58.429Z,23.61
2016-06-02T09:10:58.682Z,23.7
2016-06-02T09:11:58.481Z,23.57
2016-06-02T09:12:58.436Z,23.83
2016-06-02T09:13:58.439Z,23.9
2016-06-02T09:14:58.490Z,23.75
2016-06-02T09:15:58.445Z,23.53
2016-06-02T09:16:58.463Z,23.63
2016-06-02T09:17:58.294Z,23.7
2016-06-02T09:18:58.468Z,23.79
2016-06-02T09:19:58.471Z,23.88
2016-06-02T09:20:58.489Z,23.78
2016-06-02T09:21:58.477Z,23.79
2016-06-02T09:22:58.479Z,23.66
2016-06-02T09:23:58.326Z,23.69
2016-06-02T09:24:58.516Z,23.63
2016-06-02T09:25:58.908Z,23.76
2016-06-02T09:26:58.490Z,23.58
2016-06-02T09:27:58.509Z,23.69
2016-06-02T09:28:58.511Z,23.65
2016-06-02T09:29:58.514Z,23.55
2016-06-02T09:30:58.516Z,23.54
2016-06-02T09:31:58.519Z,23.66
2016-06-02T09:32:58.538Z,23.65
2016-06-02T09:33:58.524Z,23.76
2016-06-02T09:34:58.543Z,23.69
2016-06-02T09:35:58.546Z,23.85
2016-06-02T09:36:58.549Z,23.76
2016-06-02T09:37:58.551Z,23.58
2016-06-02T09:38:58.410Z,23.48
2016-06-02T09:39:58.444Z,23.46
2016-06-02T09:40:58.556Z,23.53
2016-06-02T09:41:58.403Z,23.55
2016-06-02T09:42:58.562Z,23.66
2016-06-02T09:43:58.408Z,23.8
2016-06-02T09:44:58.410Z,23.79
2016-06-02T09:45:58.585Z,23.8
2016-06-02T09:46:58.587Z,23.66
2016-06-02T09:47:58.435Z,23.78
2016-06-02T09:48:58.593Z,23.78
2016-06-02T09:49:58.440Z,23.72
2016-06-02T09:50:58.599Z,23.76
2016-06-02T09:51:58.601Z,23.75
2016-06-02T09:52:58.620Z,23.88
2016-06-02T09:53:58.606Z,23.78
2016-06-02T09:54:58.485Z,23.83
2016-06-02T09:55:58.612Z,23.93
2016-06-02T09:56:58.631Z,23.8
2016-06-02T09:57:58.617Z,23.88
2016-06-02T09:58:58.636Z,23.65
2016-06-02T09:59:58.639Z,23.61
2016-06-02T10:00:58.642Z,23.78
2016-06-02T10:01:58.644Z,23.83
2016-06-02T10:02:58.647Z,23.91
2016-06-02T10:03:58.666Z,23.94
2016-06-02T10:04:58.668Z,23.85
2016-06-02T10:05:58.655Z,23.78
2016-06-02T10:06:58.674Z,23.75
2016-06-02T10:07:58.519Z,23.8
2016-06-02T10:08:58.522Z,23.78
2016-06-02T10:09:58.540Z,23.8
2016-06-02T10:10:58.700Z,23.78
2016-06-02T10:11:58.718Z,23.78
2016-06-02T10:12:58.704Z,23.76
2016-06-02T10:13:58.707Z,23.84
2016-06-02T10:14:58.695Z,23.66
2016-06-02T10:15:58.713Z,23.7
2016-06-02T10:16:58.715Z,23.7
2016-06-02T10:17:58.718Z,23.69
2016-06-02T10:18:58.720Z,23.69
2016-06-02T10:19:58.724Z,23.57
2016-06-02T10:20:58.742Z,23.65
2016-06-02T10:21:58.729Z,23.68
2016-06-02T10:22:58.732Z,23.84
2016-06-02T10:23:58.595Z,23.79
2016-06-02T10:24:59.034Z,23.73
2016-06-02T10:25:59.975Z,23.78
2016-06-02T10:26:58.758Z,23.69
2016-06-02T10:27:58.762Z,23.53
2016-06-02T10:28:58.607Z,23.61
2016-06-02T10:29:58.767Z,23.61
2016-06-02T10:30:58.769Z,23.63
2016-06-02T10:31:58.803Z,23.53
2016-06-02T10:32:58.774Z,23.58
2016-06-02T10:33:58.792Z,23.58
2016-06-02T10:34:58.624Z,23.54
2016-06-02T10:35:58.814Z,23.51
2016-06-02T10:36:58.629Z,23.55
2016-06-02T10:37:58.819Z,23.55
2016-06-02T10:38:58.806Z,23.65
2016-06-02T10:39:58.824Z,23.72
2016-06-02T10:40:59.327Z,23.73
2016-06-02T10:41:58.798Z,23.66
2016-06-02T10:42:58.832Z,23.69
2016-06-02T10:43:58.819Z,23.85
2016-06-02T10:44:58.822Z,23.79
2016-06-02T10:45:58.824Z,23.97
2016-06-02T10:46:59.077Z,23.87
2016-06-02T10:47:58.862Z,23.91
2016-06-02T10:48:58.833Z,23.95
2016-06-02T10:49:58.835Z,23.98
2016-06-02T10:50:58.838Z,23.95
2016-06-02T10:51:58.857Z,24.03
2016-06-02T10:52:58.548Z,23.88
2016-06-02T10:53:58.862Z,24
2016-06-02T10:54:58.865Z,23.93
2016-06-02T10:55:59.601Z,23.85
2016-06-02T10:56:58.886Z,23.93
2016-06-02T10:57:58.888Z,23.9
2016-06-02T10:58:58.892Z,23.85
2016-06-02T10:59:58.894Z,23.75
2016-06-02T11:00:58.740Z,23.72
2016-06-02T11:01:58.930Z,23.61
2016-06-02T11:02:58.902Z,23.57
2016-06-02T11:03:58.920Z,23.76
2016-06-02T11:04:58.767Z,23.68
2016-06-02T11:05:58.910Z,23.69
2016-06-02T11:06:58.928Z,23.68
2016-06-02T11:07:58.775Z,23.57
2016-06-02T11:08:58.934Z,23.38
2016-06-02T11:09:59.061Z,23.4
2016-06-02T11:10:59.391Z,23.47
2016-06-02T11:11:58.941Z,23.6
2016-06-02T11:12:58.788Z,23.57
2016-06-02T11:13:58.962Z,23.51
2016-06-02T11:14:59.013Z,23.54
2016-06-02T11:15:59.109Z,23.68
2016-06-02T11:16:58.955Z,23.58
2016-06-02T11:17:58.958Z,23.57
2016-06-02T11:18:58.821Z,23.33
2016-06-02T11:19:58.995Z,23.51
2016-06-02T11:20:58.965Z,23.65
2016-06-02T11:21:58.984Z,23.42
2016-06-02T11:22:58.987Z,23.4
2016-06-02T11:23:58.990Z,23.47
2016-06-02T11:24:59.367Z,23.66
2016-06-02T11:25:59.307Z,23.61
2016-06-02T11:26:59.028Z,23.61
2016-06-02T11:27:58.875Z,23.7
2016-06-02T11:28:59.019Z,23.6
2016-06-02T11:29:58.850Z,23.63
2016-06-02T11:30:59.009Z,23.47
2016-06-02T11:31:59.027Z,23.54
2016-06-02T11:32:58.872Z,23.6
2016-06-02T11:33:59.033Z,23.84
2016-06-02T11:34:59.035Z,23.66
2016-06-02T11:35:59.038Z,23.73
2016-06-02T11:36:59.056Z,23.68
2016-06-02T11:37:59.043Z,23.68
2016-06-02T11:38:59.046Z,23.73
2016-06-02T11:40:01.142Z,23.73
2016-06-02T11:40:59.082Z,23.75
2016-06-02T11:41:59.069Z,23.85
2016-06-02T11:42:58.900Z,23.76
2016-06-02T11:43:59.075Z,23.76
2016-06-02T11:44:59.062Z,23.68
2016-06-02T11:45:59.080Z,23.65
2016-06-02T11:46:59.146Z,23.66
2016-06-02T11:47:58.929Z,23.73
2016-06-02T11:48:59.088Z,23.93
2016-06-02T11:49:59.090Z,23.76
2016-06-02T11:50:59.093Z,23.84
2016-06-02T11:51:59.112Z,23.93
2016-06-02T11:52:58.974Z,23.88
2016-06-02T11:53:59.133Z,23.72
2016-06-02T11:54:59.292Z,23.58
2016-06-02T11:55:59.388Z,23.6
2016-06-02T11:56:58.970Z,23.66
2016-06-02T11:57:59.128Z,23.76
2016-06-02T11:58:59.131Z,23.78
2016-06-02T11:59:59.133Z,23.79
2016-06-02T12:00:59.152Z,23.69
2016-06-02T12:01:59.139Z,23.76
2016-06-02T12:02:59.157Z,23.68
2016-06-02T12:03:59.159Z,23.78
2016-06-02T12:04:59.162Z,23.73
2016-06-02T12:05:59.164Z,23.83
2016-06-02T12:06:59.167Z,23.8
2016-06-02T12:07:59.170Z,23.66
2016-06-02T12:08:59.189Z,23.78
2016-06-02T12:09:59.973Z,23.79
2016-06-02T12:10:59.522Z,23.88
2016-06-02T12:11:59.196Z,23.94
2016-06-02T12:12:59.200Z,23.76
2016-06-02T12:13:59.202Z,23.63
2016-06-02T12:14:58.908Z,23.58
2016-06-02T12:15:59.317Z,23.85
2016-06-02T12:16:59.273Z,23.84
2016-06-02T12:17:59.213Z,23.83
2016-06-02T12:18:59.215Z,23.88
2016-06-02T12:19:59.062Z,23.91
2016-06-02T12:20:59.221Z,23.87
2016-06-02T12:21:59.224Z,23.78
2016-06-02T12:22:59.242Z,23.57
2016-06-02T12:23:59.245Z,23.65
2016-06-02T12:24:59.107Z,23.79
2016-06-02T12:25:59.673Z,23.69
2016-06-02T12:26:59.253Z,23.75
2016-06-02T12:27:59.240Z,23.76
2016-06-02T12:28:59.259Z,23.76
2016-06-02T12:29:59.261Z,23.78
2016-06-02T12:30:59.264Z,23.87
2016-06-02T12:31:59.266Z,23.91
2016-06-02T12:32:59.113Z,23.75
2016-06-02T12:33:59.115Z,23.7
2016-06-02T12:34:59.127Z,23.72
2016-06-02T12:35:59.158Z,23.79
2016-06-02T12:36:59.188Z,23.85
2016-06-02T12:37:59.375Z,23.94
2016-06-02T12:38:59.421Z,23.88
2016-06-02T12:39:59.289Z,23.68
2016-06-02T12:41:00.082Z,23.61
2016-06-02T12:41:59.470Z,23.68
2016-06-02T12:42:59.483Z,23.58
2016-06-02T12:43:59.481Z,23.65
2016-06-02T12:44:59.491Z,23.54
2016-06-02T12:45:59.512Z,23.58
2016-06-02T12:46:59.347Z,23.53
2016-06-02T12:47:59.524Z,23.51
2016-06-02T12:48:59.405Z,23.53
2016-06-02T12:49:59.521Z,23.54
2016-06-02T12:50:59.572Z,23.53
2016-06-02T12:51:59.528Z,23.5
2016-06-02T12:52:59.532Z,23.28
2016-06-02T12:53:59.411Z,23.35
2016-06-02T12:54:59.618Z,23.33
2016-06-02T12:55:59.886Z,23.53
2016-06-02T12:56:59.561Z,23.54
2016-06-02T12:57:59.564Z,23.47
2016-06-02T12:58:59.553Z,23.42
2016-06-02T12:59:59.555Z,23.53
2016-06-02T13:00:59.574Z,23.43
2016-06-02T13:01:59.562Z,23.32
2016-06-02T13:02:59.564Z,23.5
2016-06-02T13:03:59.567Z,23.6
2016-06-02T13:04:59.570Z,23.69
2016-06-02T13:05:59.573Z,23.63
2016-06-02T13:06:59.622Z,23.65
2016-06-02T13:07:59.593Z,23.6
2016-06-02T13:08:59.596Z,23.68
2016-06-02T13:09:59.506Z,23.65
2016-06-02T13:10:59.587Z,23.66
2016-06-02T13:11:59.589Z,23.6
2016-06-02T13:12:59.435Z,23.57
2016-06-02T13:13:59.595Z,23.55
2016-06-02T13:14:59.598Z,23.61
2016-06-02T13:15:59.490Z,23.73